createdAt,value
2019-03-25T00:02:03.117Z,2.17
2019-03-25T00:07:17.969Z,2.33
2019-03-25T00:09:47.257Z,2.60
2019-03-25T00:12:16.552Z,1.55
2019-03-25T00:14:46.153Z,2.45
2019-03-25T00:17:15.462Z,2.98
2019-03-25T00:19:44.909Z,1.75
2019-03-25T00:22:14.204Z,1.87
2019-03-25T00:24:43.493Z,1.92
2019-03-25T00:27:12.801Z,2.62
2019-03-25T00:29:42.097Z,3.60
2019-03-25T00:32:11.551Z,3.92
2019-03-25T00:34:41.929Z,2.75
2019-03-25T00:37:11.493Z,2.50
2019-03-25T00:39:40.793Z,1.60
2019-03-25T00:42:10.087Z,1.77
2019-03-25T00:44:39.383Z,2.33
2019-03-25T00:47:07.984Z,1.82
2019-03-25T00:49:37.366Z,1.75
2019-03-25T00:52:06.731Z,2.10
2019-03-25T00:54:36.017Z,2.02
2019-03-25T00:57:04.601Z,3.65
2019-03-25T00:59:33.893Z,1.65
2019-03-25T01:02:03.265Z,2.40
2019-03-25T01:04:32.661Z,1.92
2019-03-25T01:07:01.961Z,3.17
2019-03-25T01:09:31.249Z,3.83
2019-03-25T01:12:00.789Z,3.15
2019-03-25T01:14:30.074Z,2.60
2019-03-25T01:16:59.682Z,1.92
2019-03-25T01:19:29.053Z,1.67
2019-03-25T01:21:58.428Z,1.92
2019-03-25T01:24:27.774Z,2.37
2019-03-25T01:26:57.089Z,2.80
2019-03-25T01:29:26.382Z,1.98
2019-03-25T01:31:55.678Z,2.42
2019-03-25T01:34:25.229Z,1.67
2019-03-25T01:36:53.816Z,1.98
2019-03-25T01:39:23.117Z,1.95
2019-03-25T01:41:52.410Z,2.62
2019-03-25T01:44:21.694Z,1.98
2019-03-25T01:46:50.982Z,1.52
2019-03-25T01:49:20.272Z,2.40
2019-03-25T01:51:49.578Z,1.60
2019-03-25T01:54:19.101Z,2.35
2019-03-25T01:56:48.386Z,1.90
2019-03-25T01:59:17.678Z,2.77
2019-03-25T02:01:46.981Z,1.87
2019-03-25T02:04:16.297Z,2.37
2019-03-25T02:06:45.589Z,1.80
2019-03-25T02:09:14.185Z,2.27
2019-03-25T02:11:43.501Z,2.47
2019-03-25T02:14:12.793Z,1.80
2019-03-25T02:16:42.086Z,4.17
2019-03-25T02:19:11.397Z,2.90
2019-03-25T02:21:40.716Z,3.52
2019-03-25T02:24:10.012Z,3.77
2019-03-25T02:26:39.300Z,3.05
2019-03-25T02:29:08.592Z,3.80
2019-03-25T02:31:37.887Z,6.35
2019-03-25T02:34:07.198Z,4.15
2019-03-25T02:36:36.513Z,3.77
2019-03-25T02:39:06.606Z,4.10
2019-03-25T02:41:35.902Z,3.60
2019-03-25T02:44:05.211Z,2.35
2019-03-25T02:46:34.494Z,2.20
2019-03-25T02:49:03.874Z,2.58
2019-03-25T02:51:33.192Z,2.22
2019-03-25T02:54:02.528Z,2.37
2019-03-25T02:56:31.817Z,2.35
2019-03-25T02:59:01.120Z,2.33
2019-03-25T03:01:30.426Z,4.37
2019-03-25T03:03:59.745Z,5.08
2019-03-25T03:06:29.291Z,3.90
2019-03-25T03:08:58.663Z,4.17
2019-03-25T03:11:28.032Z,1.90
2019-03-25T03:13:57.313Z,3.35
2019-03-25T03:16:26.616Z,4.33
2019-03-25T03:18:55.922Z,5.45
2019-03-25T03:21:25.455Z,3.55
2019-03-25T03:23:54.742Z,4.85
2019-03-25T03:26:24.133Z,5.10
2019-03-25T03:28:53.422Z,4.62
2019-03-25T03:31:22.734Z,6.00
2019-03-25T03:33:52.027Z,5.12
2019-03-25T03:36:21.346Z,4.55
2019-03-25T03:38:50.641Z,2.52
2019-03-25T03:41:19.963Z,3.05
2019-03-25T03:43:49.249Z,2.90
2019-03-25T03:46:18.617Z,2.10
2019-03-25T03:48:47.946Z,2.77
2019-03-25T03:51:17.393Z,2.62
2019-03-25T03:53:47.108Z,2.67
2019-03-25T03:56:16.596Z,3.07
2019-03-25T03:58:47.129Z,2.45
2019-03-25T04:01:16.428Z,2.50
2019-03-25T04:03:45.713Z,2.47
2019-03-25T04:06:15.001Z,2.70
2019-03-25T04:08:44.290Z,2.10
2019-03-25T04:11:13.592Z,2.80
2019-03-25T04:13:43.031Z,2.77
2019-03-25T04:16:12.334Z,1.97
2019-03-25T04:18:41.618Z,3.07
2019-03-25T04:21:10.995Z,2.50
2019-03-25T04:23:40.494Z,2.33
2019-03-25T04:26:09.782Z,3.03
2019-03-25T04:28:39.074Z,2.63
2019-03-25T04:31:08.373Z,2.37
2019-03-25T04:33:37.910Z,2.47
2019-03-25T04:36:07.473Z,2.57
2019-03-25T04:38:36.903Z,2.90
2019-03-25T04:41:06.096Z,2.20
2019-03-25T04:43:35.389Z,3.00
2019-03-25T04:46:04.813Z,2.57
2019-03-25T04:48:33.393Z,2.93
2019-03-25T04:51:02.688Z,2.83
2019-03-25T04:53:31.982Z,3.07
2019-03-25T04:56:01.256Z,3.17
2019-03-25T04:58:30.549Z,2.93
2019-03-25T05:00:59.846Z,3.13
2019-03-25T05:03:29.174Z,2.60
2019-03-25T05:05:58.517Z,2.90
2019-03-25T05:08:27.817Z,3.13
2019-03-25T05:10:57.104Z,2.83
2019-03-25T05:13:26.736Z,2.67
2019-03-25T05:15:56.009Z,3.20
2019-03-25T05:18:25.308Z,2.97
2019-03-25T05:20:54.609Z,3.00
2019-03-25T05:23:23.915Z,3.47
2019-03-25T05:25:53.382Z,3.93
2019-03-25T05:28:22.665Z,2.80
2019-03-25T05:30:51.964Z,3.30
2019-03-25T05:33:21.267Z,2.40
2019-03-25T05:35:50.621Z,3.17
2019-03-25T05:38:19.921Z,3.27
2019-03-25T05:40:52.123Z,3.70
2019-03-25T05:43:21.510Z,3.27
2019-03-25T05:45:50.793Z,3.60
2019-03-25T05:48:20.345Z,4.10
2019-03-25T05:50:49.645Z,3.57
2019-03-25T05:53:18.961Z,3.50
2019-03-25T05:55:48.249Z,5.67
2019-03-25T05:58:17.628Z,3.77
2019-03-25T06:00:46.991Z,3.67
2019-03-25T06:03:16.566Z,3.20
2019-03-25T06:05:45.857Z,2.73
2019-03-25T06:08:15.256Z,2.25
2019-03-25T06:10:44.631Z,3.60
2019-03-25T06:13:13.929Z,3.58
2019-03-25T06:15:43.385Z,3.58
2019-03-25T06:18:12.814Z,4.17
2019-03-25T06:20:42.121Z,3.42
2019-03-25T06:23:11.513Z,2.73
2019-03-25T06:25:40.814Z,3.03
2019-03-25T06:28:10.185Z,2.98
2019-03-25T06:30:39.578Z,3.50
2019-03-25T06:33:12.711Z,2.73
2019-03-25T06:35:39.909Z,3.77
2019-03-25T06:38:09.234Z,3.15
2019-03-25T06:40:38.666Z,3.20
2019-03-25T06:43:07.951Z,3.50
2019-03-25T06:45:37.387Z,2.27
2019-03-25T06:48:06.687Z,2.03
2019-03-25T06:50:36.017Z,2.67
2019-03-25T06:53:05.450Z,2.30
2019-03-25T06:55:34.838Z,2.87
2019-03-25T06:58:04.218Z,1.73
2019-03-25T07:00:33.535Z,3.63
2019-03-25T07:03:02.889Z,2.80
2019-03-25T07:05:32.271Z,2.30
2019-03-25T07:08:01.548Z,2.73
2019-03-25T07:10:35.181Z,2.70
2019-03-25T07:13:04.769Z,3.47
2019-03-25T07:15:34.134Z,3.10
2019-03-25T07:18:03.924Z,4.10
2019-03-25T07:20:33.297Z,2.87
2019-03-25T07:23:02.592Z,3.67
2019-03-25T07:25:32.054Z,3.43
2019-03-25T07:28:01.345Z,4.50
2019-03-25T07:30:30.714Z,3.67
2019-03-25T07:33:00.249Z,4.40
2019-03-25T07:35:29.561Z,4.40
2019-03-25T07:37:58.840Z,2.77
2019-03-25T07:40:28.165Z,3.60
2019-03-25T07:42:57.457Z,3.27
2019-03-25T07:45:26.842Z,2.70
2019-03-25T07:47:56.177Z,3.70
2019-03-25T07:50:25.473Z,2.20
2019-03-25T07:52:55.096Z,2.37
2019-03-25T07:55:24.402Z,2.90
2019-03-25T07:57:53.693Z,2.80
2019-03-25T08:00:23.145Z,2.20
2019-03-25T08:02:52.449Z,2.10
2019-03-25T08:05:21.732Z,2.83
2019-03-25T08:07:51.047Z,2.27
2019-03-25T08:10:32.244Z,2.20
2019-03-25T08:13:01.648Z,2.17
2019-03-25T08:15:30.396Z,1.67
2019-03-25T08:17:59.827Z,2.43
2019-03-25T08:20:29.133Z,1.33
2019-03-25T08:22:58.677Z,1.97
2019-03-25T08:25:27.961Z,1.80
2019-03-25T08:28:00.197Z,1.73
2019-03-25T08:30:28.493Z,1.63
2019-03-25T08:32:57.776Z,1.70
2019-03-25T08:35:27.217Z,1.70
2019-03-25T08:37:55.813Z,1.80
2019-03-25T08:40:24.384Z,2.50
2019-03-25T08:42:53.749Z,2.20
2019-03-25T08:45:22.392Z,0.90
2019-03-25T08:47:51.691Z,0.80
2019-03-25T08:50:21.134Z,1.67
2019-03-25T08:52:50.425Z,1.03
2019-03-25T08:55:19.718Z,2.20
2019-03-25T08:57:49.010Z,3.00
2019-03-25T09:00:18.653Z,1.47
2019-03-25T09:02:47.955Z,1.80
2019-03-25T09:05:17.249Z,1.70
2019-03-25T09:07:45.829Z,2.83
2019-03-25T09:10:15.297Z,2.10
2019-03-25T09:12:43.897Z,2.07
2019-03-25T09:15:13.446Z,1.83
2019-03-25T09:17:42.819Z,1.77
2019-03-25T09:20:12.673Z,2.33
2019-03-25T09:22:42.182Z,1.47
2019-03-25T09:25:11.846Z,1.77
2019-03-25T09:27:41.129Z,1.80
2019-03-25T09:30:11.064Z,1.40
2019-03-25T09:32:40.810Z,1.40
2019-03-25T09:35:10.645Z,1.97
2019-03-25T09:37:40.125Z,1.70
2019-03-25T09:40:10.137Z,1.63
2019-03-25T09:42:39.529Z,2.67
2019-03-25T09:45:09.745Z,2.23
2019-03-25T09:47:39.051Z,2.27
2019-03-25T09:50:09.158Z,1.80
2019-03-25T09:52:39.077Z,2.87
2019-03-25T09:55:09.121Z,2.40
2019-03-25T09:57:38.421Z,1.30
2019-03-25T10:00:10.270Z,0.60
2019-03-25T10:02:39.958Z,1.83
2019-03-25T10:05:09.482Z,1.67
2019-03-25T10:07:38.763Z,1.30
2019-03-25T10:10:08.983Z,1.50
2019-03-25T10:12:37.553Z,1.20
2019-03-25T10:15:08.864Z,1.33
2019-03-25T10:17:38.469Z,0.73
2019-03-25T10:20:08.130Z,1.50
2019-03-25T10:22:37.418Z,1.40
2019-03-25T10:25:07.556Z,0.97
2019-03-25T10:27:36.855Z,1.47
2019-03-25T10:30:06.765Z,1.10
2019-03-25T10:32:36.115Z,1.23
2019-03-25T10:35:05.782Z,1.40
2019-03-25T10:37:35.214Z,2.10
2019-03-25T10:40:05.432Z,1.13
2019-03-25T10:42:34.009Z,0.97
2019-03-25T10:45:02.661Z,0.87
2019-03-25T10:47:31.950Z,1.90
2019-03-25T10:50:01.325Z,1.20
2019-03-25T10:52:30.602Z,1.90
2019-03-25T10:54:59.898Z,1.90
2019-03-25T10:57:29.173Z,0.80
2019-03-25T10:59:58.742Z,0.70
2019-03-25T11:02:28.081Z,1.50
2019-03-25T11:04:57.445Z,1.70
2019-03-25T11:07:29.331Z,1.70
2019-03-25T11:09:57.893Z,1.90
2019-03-25T11:12:27.325Z,1.70
2019-03-25T11:14:55.935Z,2.10
2019-03-25T11:17:25.236Z,1.80
2019-03-25T11:19:55.905Z,1.03
2019-03-25T11:22:25.641Z,0.90
2019-03-25T11:24:54.929Z,1.30
2019-03-25T11:27:24.397Z,0.90
2019-03-25T11:29:53.813Z,1.33
2019-03-25T11:32:23.097Z,1.73
2019-03-25T11:34:51.721Z,0.93
2019-03-25T11:37:21.161Z,1.57
2019-03-25T11:39:49.760Z,1.00
2019-03-25T11:42:19.209Z,1.03
2019-03-25T11:44:47.889Z,0.70
2019-03-25T11:47:17.190Z,1.30
2019-03-25T11:49:46.573Z,0.80
2019-03-25T11:52:15.939Z,0.70
2019-03-25T11:54:45.231Z,1.03
2019-03-25T11:57:14.603Z,1.77
2019-03-25T11:59:43.881Z,1.43
2019-03-25T12:02:17.473Z,0.40
2019-03-25T12:04:44.369Z,0.87
2019-03-25T12:07:13.813Z,1.20
2019-03-25T12:09:43.177Z,1.20
2019-03-25T12:12:12.555Z,1.03
2019-03-25T12:14:41.857Z,1.57
2019-03-25T12:17:11.171Z,1.20
2019-03-25T12:19:40.453Z,1.23
2019-03-25T12:22:09.748Z,1.43
2019-03-25T12:24:39.132Z,1.47
2019-03-25T12:27:08.439Z,0.90
2019-03-25T12:29:37.970Z,1.10
2019-03-25T12:32:07.426Z,1.57
2019-03-25T12:34:36.157Z,1.87
2019-03-25T12:37:05.563Z,0.67
2019-03-25T12:39:34.892Z,1.37
2019-03-25T12:42:04.360Z,1.93
2019-03-25T12:44:33.842Z,1.27
2019-03-25T12:47:04.448Z,0.97
2019-03-25T12:49:33.901Z,0.90
2019-03-25T12:52:03.426Z,1.10
2019-03-25T12:54:33.242Z,1.40
2019-03-25T12:57:02.548Z,1.10
2019-03-25T12:59:40.818Z,1.43
2019-03-25T13:02:02.873Z,1.17
2019-03-25T13:04:32.197Z,1.27
2019-03-25T13:07:02.097Z,1.23
2019-03-25T13:09:31.442Z,1.57
2019-03-25T13:12:00.025Z,1.20
2019-03-25T13:14:29.365Z,1.57
2019-03-25T13:16:57.942Z,1.60
2019-03-25T13:19:27.241Z,1.50
2019-03-25T13:21:56.693Z,1.30
2019-03-25T13:24:25.283Z,1.60
2019-03-25T13:26:54.619Z,1.33
2019-03-25T13:29:23.948Z,0.97
2019-03-25T13:31:53.815Z,1.10
2019-03-25T13:34:23.226Z,1.27
2019-03-25T13:36:52.722Z,1.10
2019-03-25T13:39:22.127Z,1.40
2019-03-25T13:41:51.401Z,1.30
2019-03-25T13:44:20.713Z,0.90
2019-03-25T13:46:50.133Z,0.90
2019-03-25T13:49:19.408Z,0.87
2019-03-25T13:51:49.008Z,1.03
2019-03-25T13:54:18.524Z,0.90
2019-03-25T13:56:47.809Z,1.03
2019-03-25T13:59:17.101Z,1.10
2019-03-25T14:01:45.677Z,1.50
2019-03-25T14:04:15.310Z,1.10
2019-03-25T14:06:44.030Z,1.60
2019-03-25T14:09:13.359Z,1.30
2019-03-25T14:11:41.956Z,0.90
2019-03-25T14:14:10.537Z,1.27
2019-03-25T14:16:39.111Z,1.40
2019-03-25T14:19:08.416Z,1.27
2019-03-25T14:21:37.689Z,1.70
2019-03-25T14:24:06.277Z,1.13
2019-03-25T14:26:35.699Z,1.20
2019-03-25T14:29:11.070Z,1.03
2019-03-25T14:31:40.410Z,0.90
2019-03-25T14:37:07.840Z,0.73
2019-03-25T14:39:37.226Z,1.80
2019-03-25T14:42:06.037Z,1.30
2019-03-25T14:44:35.375Z,1.80
2019-03-25T14:47:04.032Z,1.17
2019-03-25T14:49:34.078Z,2.87
2019-03-25T14:52:03.485Z,2.67
2019-03-25T14:54:32.089Z,2.10
2019-03-25T14:57:01.558Z,2.40
2019-03-25T14:59:30.945Z,1.40
2019-03-25T15:02:00.485Z,2.00
2019-03-25T15:04:29.843Z,1.60
2019-03-25T15:06:59.124Z,1.40
2019-03-25T15:09:27.709Z,1.90
2019-03-25T15:11:56.974Z,1.37
2019-03-25T15:14:26.265Z,1.27
2019-03-25T15:16:54.826Z,1.33
2019-03-25T15:19:24.124Z,2.07
2019-03-25T15:21:53.427Z,2.03
2019-03-25T15:24:22.985Z,1.10
2019-03-25T15:26:52.334Z,1.63
2019-03-25T15:29:21.613Z,0.70
2019-03-25T15:31:50.924Z,1.20
2019-03-25T15:34:20.213Z,1.10
2019-03-25T15:36:49.513Z,1.53
2019-03-25T15:39:18.817Z,1.47
2019-03-25T15:41:48.114Z,1.80
2019-03-25T15:44:17.426Z,1.40
2019-03-25T15:46:55.373Z,0.60
2019-03-25T15:49:18.753Z,0.90
2019-03-25T15:51:48.297Z,0.77
2019-03-25T15:54:17.599Z,1.87
2019-03-25T15:56:46.896Z,2.00
2019-03-25T15:59:16.270Z,1.70
2019-03-25T16:01:45.567Z,1.80
2019-03-25T16:04:14.872Z,1.20
2019-03-25T16:06:44.169Z,1.27
2019-03-25T16:09:52.789Z,1.33
2019-03-25T16:12:21.385Z,1.70
2019-03-25T16:14:50.687Z,2.37
2019-03-25T16:17:20.066Z,2.00
2019-03-25T16:19:49.534Z,2.63
2019-03-25T16:22:21.239Z,2.60
2019-03-25T16:24:50.538Z,1.90
2019-03-25T16:27:19.889Z,1.47
2019-03-25T16:29:49.221Z,1.10
2019-03-25T16:32:18.510Z,2.27
2019-03-25T16:34:48.062Z,1.37
2019-03-25T16:37:17.454Z,1.80
2019-03-25T16:39:46.729Z,1.33
2019-03-25T16:42:16.120Z,0.90
2019-03-25T16:44:45.487Z,1.20
2019-03-25T16:47:14.126Z,1.03
2019-03-25T16:49:43.679Z,1.30
2019-03-25T16:52:13.078Z,1.03
2019-03-25T16:54:42.442Z,1.53
2019-03-25T16:57:11.737Z,1.27
2019-03-25T16:59:40.707Z,1.40
2019-03-25T17:02:10.329Z,1.50
2019-03-25T17:04:39.682Z,1.33
2019-03-25T17:07:09.016Z,1.83
2019-03-25T17:09:38.390Z,1.87
2019-03-25T17:12:07.678Z,1.20
2019-03-25T17:14:36.973Z,1.27
2019-03-25T17:17:05.729Z,1.33
2019-03-25T17:19:35.105Z,1.30
2019-03-25T17:22:04.534Z,1.47
2019-03-25T17:24:33.811Z,1.40
2019-03-25T17:27:03.113Z,1.43
2019-03-25T17:29:32.477Z,3.30
2019-03-25T17:32:02.045Z,1.97
2019-03-25T17:34:31.351Z,2.10
2019-03-25T17:37:00.649Z,2.20
2019-03-25T17:39:29.966Z,2.47
2019-03-25T17:41:59.301Z,2.73
2019-03-25T17:44:28.602Z,1.73
2019-03-25T17:46:57.893Z,1.77
2019-03-25T17:49:27.305Z,1.53
2019-03-25T17:51:56.589Z,2.00
2019-03-25T17:54:25.938Z,1.40
2019-03-25T17:56:55.317Z,3.03
2019-03-25T17:59:24.681Z,2.27
2019-03-25T18:01:54.069Z,2.37
2019-03-25T18:04:23.374Z,2.80
2019-03-25T18:06:52.675Z,3.07
2019-03-25T18:09:21.986Z,2.77
2019-03-25T18:11:51.301Z,3.03
2019-03-25T18:14:20.634Z,3.93
2019-03-25T18:16:49.943Z,3.13
2019-03-25T18:19:19.240Z,2.93
2019-03-25T18:21:48.529Z,2.03
2019-03-25T18:24:17.946Z,2.60
2019-03-25T18:26:47.345Z,2.77
2019-03-25T18:29:17.194Z,2.87
2019-03-25T18:31:46.713Z,2.37
2019-03-25T18:34:16.037Z,3.17
2019-03-25T18:36:45.331Z,2.00
2019-03-25T18:39:14.649Z,1.77
2019-03-25T18:41:44.029Z,1.37
2019-03-25T18:44:13.737Z,1.70
2019-03-25T18:46:43.009Z,2.90
2019-03-25T18:49:12.348Z,2.33
2019-03-25T18:51:41.808Z,8.23
2019-03-25T18:54:11.187Z,5.90
2019-03-25T18:56:40.471Z,3.27
2019-03-25T18:59:12.630Z,2.87
2019-03-25T19:01:41.973Z,2.87
2019-03-25T19:04:11.345Z,2.70
2019-03-25T19:06:42.107Z,2.13
2019-03-25T19:09:11.461Z,2.63
2019-03-25T19:11:40.736Z,3.27
2019-03-25T19:14:11.554Z,9.30
2019-03-25T19:16:40.962Z,12.70
2019-03-25T19:19:10.317Z,10.67
2019-03-25T19:21:39.665Z,6.30
2019-03-25T19:24:08.941Z,2.90
2019-03-25T19:26:38.289Z,2.50
2019-03-25T19:29:07.632Z,2.53
2019-03-25T19:31:36.961Z,2.33
2019-03-25T19:34:06.421Z,2.30
2019-03-25T19:36:35.714Z,2.27
2019-03-25T19:39:07.139Z,1.27
2019-03-25T19:41:36.704Z,1.30
2019-03-25T19:44:06.021Z,1.43
2019-03-25T19:46:35.326Z,1.53
2019-03-25T19:49:04.627Z,1.70
2019-03-25T19:51:34.138Z,2.80
2019-03-25T19:54:03.485Z,2.47
2019-03-25T19:56:32.795Z,2.50
2019-03-25T19:59:02.637Z,1.93
2019-03-25T20:01:31.965Z,1.87
2019-03-25T20:04:01.381Z,1.87
2019-03-25T20:06:30.688Z,2.40
2019-03-25T20:09:00.163Z,1.63
2019-03-25T20:11:29.445Z,1.60
2019-03-25T20:13:58.742Z,3.23
2019-03-25T20:16:28.048Z,3.17
2019-03-25T20:18:57.344Z,2.90
2019-03-25T20:21:26.758Z,4.40
2019-03-25T20:23:56.398Z,6.00
2019-03-25T20:26:25.793Z,3.13
2019-03-25T20:28:55.132Z,3.90
2019-03-25T20:31:24.574Z,7.37
2019-03-25T20:33:54.449Z,7.37
2019-03-25T20:36:23.858Z,6.43
2019-03-25T20:38:53.429Z,11.93
2019-03-25T20:41:23.618Z,6.30
2019-03-25T20:43:53.747Z,7.60
2019-03-25T20:46:23.164Z,5.67
2019-03-25T20:48:52.493Z,4.13
2019-03-25T20:51:21.820Z,5.90
2019-03-25T20:53:51.239Z,3.47
2019-03-25T20:56:19.986Z,3.37
2019-03-25T20:58:49.347Z,3.07
2019-03-25T21:01:19.010Z,2.90
2019-03-25T21:03:48.501Z,2.63
2019-03-25T21:06:18.020Z,2.40
2019-03-25T21:08:47.317Z,1.90
2019-03-25T21:11:16.703Z,1.80
2019-03-25T21:13:46.163Z,2.70
2019-03-25T21:16:15.499Z,3.03
2019-03-25T21:18:44.957Z,1.93
2019-03-25T21:21:14.575Z,2.57
2019-03-25T21:23:43.918Z,2.80
2019-03-25T21:26:13.349Z,2.53
2019-03-25T21:28:42.821Z,3.53
2019-03-25T21:31:12.175Z,2.60
2019-03-25T21:33:41.535Z,5.93
2019-03-25T21:36:10.846Z,8.20
2019-03-25T21:38:40.148Z,3.57
2019-03-25T21:41:09.480Z,7.20
2019-03-25T21:43:38.815Z,9.57
2019-03-25T21:46:08.204Z,11.40
2019-03-25T21:48:39.885Z,17.53
2019-03-25T21:51:08.622Z,4.23
2019-03-25T21:53:38.019Z,3.67
2019-03-25T21:56:07.405Z,10.23
2019-03-25T21:58:36.806Z,7.73
2019-03-25T22:01:06.354Z,7.20
2019-03-25T22:03:35.670Z,5.27
2019-03-25T22:06:05.058Z,10.87
2019-03-25T22:08:34.353Z,5.00
2019-03-25T22:11:03.660Z,7.57
2019-03-25T22:13:32.960Z,7.07
2019-03-25T22:16:02.317Z,6.60
2019-03-25T22:18:31.726Z,6.30
2019-03-25T22:21:01.017Z,8.70
2019-03-25T22:23:30.369Z,5.00
2019-03-25T22:25:59.638Z,8.33
2019-03-25T22:28:29.013Z,6.83
2019-03-25T22:30:58.592Z,7.27
2019-03-25T22:33:27.953Z,6.20
2019-03-25T22:35:57.254Z,4.33
2019-03-25T22:38:26.550Z,6.33
2019-03-25T22:40:55.817Z,7.23
2019-03-25T22:43:25.309Z,7.80
2019-03-25T22:45:54.594Z,2.70
2019-03-25T22:48:23.881Z,2.73
2019-03-25T22:50:53.174Z,4.33
2019-03-25T22:53:22.453Z,7.97
2019-03-25T22:55:51.753Z,5.23
2019-03-25T22:58:21.320Z,3.13
2019-03-25T23:00:50.770Z,1.93
2019-03-25T23:03:20.132Z,2.40
2019-03-25T23:05:49.541Z,1.23
2019-03-25T23:08:18.985Z,2.20
2019-03-25T23:10:48.349Z,2.37
2019-03-25T23:13:17.678Z,3.53
2019-03-25T23:15:47.009Z,4.27
2019-03-25T23:18:16.293Z,4.23
2019-03-25T23:20:45.593Z,2.47
2019-03-25T23:23:15.210Z,2.13
2019-03-25T23:25:44.574Z,1.90
2019-03-25T23:28:13.874Z,2.17
2019-03-25T23:30:43.169Z,1.60
2019-03-25T23:33:12.465Z,2.40
2019-03-25T23:35:41.757Z,2.10
2019-03-25T23:38:11.058Z,1.57
2019-03-25T23:40:40.422Z,2.53
2019-03-25T23:43:09.716Z,1.87
2019-03-25T23:45:39.077Z,2.23
2019-03-25T23:48:08.699Z,3.00
2019-03-25T23:50:38.000Z,2.43
2019-03-25T23:53:07.281Z,2.30
2019-03-25T23:55:36.909Z,2.37
2019-03-25T23:58:06.189Z,2.70
